Kiana, AK

8:50 PM AKDT on August 22, 2014 (GMT -0800)
Baker Memorial | Change Station
CLOSE
Current Station
Airport
Location: Kiana,
Elevation: 151 ft
Nearby Weather Stations

Elev 151 ft 66.98 °N, 160.44 °W | Updated 49 minutes ago

Partly Cloudy
Partly Cloudy
60 °F
Feels Like 60 °F
N
6
Wind Variable Wind from WSW

Today
High -- | Low -- °F
--% Chance of Precip.
Yesterday
High -- | Low -- °F
Precip. -- in
6:38 AM 10:48 PM
Waning Crescent, 5% visible
Pressure 30.32 in
Visibility 10.0 miles
Clouds Few 4700 ft
Dew Point 45 °F
Humidity 57%
Rainfall 0.00 in
Snow Depth Not available.
UV 1 out of 12
Pollen Not available.
Air Quality Not available.
Flu Activity Not available.
METAR PAIK 230401Z AUTO 25005KT 10SM FEW047 16/07 A3020 RMK AO2 SLP266 T01560072 PNO $

More Conditions Fewer Conditions

Pressure 30.32 in
Visibility 10.0 miles
Clouds Few 4700 ft
Dew Point 45 °F
Humidity 57%
Rainfall 0.00 in
Snow Depth Not available.
UV 1 out of 12
Pollen Not available.
Air Quality Not available.
Flu Activity Not available.
METAR PAIK 230401Z AUTO 25005KT 10SM FEW047 16/07 A3020 RMK AO2 SLP266 T01560072 PNO $

More Conditions Fewer Conditions

10-Day Weather Forecast

Almanac

Astronomy

Aug. 22, 2014 Rise Set
Actual Time 6:38 AM AKDT 10:48 PM AKDT
Civil Twilight 5:26 AM AKDT 11:58 PM AKDT
Nautical Twilight 3:17 AM AKDT 2:11 AM AKDT
Astronomical Twilight Sun does not rise Sun does not rise
Moon 3:35 AM AKDT (8/22) 9:24 PM AKDT (8/22)
Length of Visible Light 18h 31m
Length of Day
16h 10m
Tomorrow will be 7m 47s shorter.
Waning Crescent, 5% of the Moon is Illuminated
Aug 23
Waning Crescent
Aug 25
New
Sep 2
First Quarter
Sep 8
Full
Sep 15
Last Quarter

Yesterday's Extremes

State Highs State Lows

Community

WunderPhotos

Upload Photos

1,746,365 photos uploaded!

WunderBlogs® & News

By Dr. Jeff Masters
Director of Meteorology, Weather Underground
By Kari Strenfel
Meteorologist, Weather Underground
By Christopher C. Burt
Weather Historian, Weather Underground
August 23, 2014
August 23, 2014
August 22, 2014

Nearby

Snow Depth

Station Depth Elevation
Rocky Point 4 in 500 ft
Coldfoot 0 in 1040 ft
Little Chena Ridge 1 in 2000 ft
Fort Yukon 1 in 430 ft
Munson Ridge 1 in 3100 ft

Earthquake Activity

City Distance Mag. Time & Date
No recent earthquake activity has been reported nearby.
Minimum magnitude displayed is 2.5.

Coastal Water Temperatures

Place Temperature
No Stations Reporting

Nearby Weather Stations